Time;durP1;ratioP1;P1;durP2;ratioP2;P2;SDS_P1;SDS_P2;PMS_P1;PMS_P2;Temp;Humidity;BMP_temperature;BMP_pressure;BME280_temperature;BME280_humidity;BME280_pressure;Samples;Min_cycle;Max_cycle;Signal;HPM_P1;HPM_P2
2022/03/11 00:01:59;;;;;;;7.53;5.90;;;;;;;;;;6219317;23;20181;-81
2022/03/11 00:04:25;;;;;;;8.93;6.03;;;;;;;;;;6220989;23;20160;-82
2022/03/11 00:06:51;;;;;;;8.77;6.20;;;;;;;;;;6221404;23;20181;-81
2022/03/11 00:09:17;;;;;;;7.20;6.03;;;;;;;;;;6221175;23;20146;-82
2022/03/11 00:11:43;;;;;;;10.33;5.83;;;;;;;;;;6219727;23;20165;-82
2022/03/11 00:14:09;;;;;;;7.37;6.00;;;;;;;;;;6219719;23;20178;-82
2022/03/11 00:16:35;;;;;;;8.50;6.03;;;;;;;;;;6219372;23;20184;-81
2022/03/11 00:19:01;;;;;;;7.50;6.00;;;;;;;;;;6221074;23;20157;-81
2022/03/11 00:21:28;;;;;;;6.40;5.07;;;;;;;;;;6221348;23;20174;-81
2022/03/11 00:23:54;;;;;;;8.43;5.90;;;;;;;;;;6221396;23;20146;-81
2022/03/11 00:26:20;;;;;;;6.53;5.20;;;;;;;;;;6220469;23;20169;-81
2022/03/11 00:28:46;;;;;;;7.97;5.40;;;;;;;;;;6219378;23;20150;-82
2022/03/11 00:31:12;;;;;;;6.43;5.77;;;;;;;;;;6221180;23;20480;-81
2022/03/11 00:33:38;;;;;;;7.03;5.73;;;;;;;;;;6221735;23;20146;-81
2022/03/11 00:36:04;;;;;;;8.53;6.47;;;;;;;;;;6219206;23;20182;-82
2022/03/11 00:38:30;;;;;;;6.83;5.47;;;;;;;;;;6220845;23;20150;-81
2022/03/11 00:40:56;;;;;;;6.53;5.83;;;;;;;;;;6221405;23;20230;-82
2022/03/11 00:43:25;;;;;;;6.80;5.87;;;;;;;;;;6222224;23;20456;-82
2022/03/11 00:45:51;;;;;;;6.83;5.47;;;;;;;;;;6194215;23;20192;-83
2022/03/11 00:48:17;;;;;;;7.50;6.10;;;;;;;;;;6220696;23;20142;-81
2022/03/11 00:50:44;;;;;;;8.07;5.60;;;;;;;;;;6221109;23;20153;-81
2022/03/11 00:53:10;;;;;;;7.80;5.57;;;;;;;;;;6219020;23;20150;-82
2022/03/11 00:55:36;;;;;;;7.07;5.60;;;;;;;;;;6222056;23;20646;-82
2022/03/11 00:58:02;;;;;;;6.87;5.83;;;;;;;;;;6220215;23;20142;-82
2022/03/11 01:00:28;;;;;;;7.83;6.13;;;;;;;;;;6220711;23;20160;-82
2022/03/11 01:02:54;;;;;;;7.73;5.10;;;;;;;;;;6220204;23;20181;-82
2022/03/11 01:05:24;;;;;;;7.47;5.73;;;;;;;;;;6220985;23;20173;-81
2022/03/11 01:07:50;;;;;;;6.50;5.80;;;;;;;;;;6219757;23;20149;-83
2022/03/11 01:10:16;;;;;;;9.30;5.83;;;;;;;;;;6220265;23;20171;-81
2022/03/11 01:12:43;;;;;;;6.00;5.40;;;;;;;;;;6219839;23;20146;-82
2022/03/11 01:15:10;;;;;;;8.03;5.97;;;;;;;;;;6220820;23;20173;-81
2022/03/11 01:17:36;;;;;;;5.90;5.30;;;;;;;;;;6220087;23;20173;-82
2022/03/11 01:20:04;;;;;;;6.77;5.00;;;;;;;;;;6218983;23;20247;-82
2022/03/11 01:22:34;;;;;;;6.53;5.23;;;;;;;;;;6218040;23;20174;-80
2022/03/11 01:25:00;;;;;;;6.93;5.10;;;;;;;;;;6219926;23;20673;-79
2022/03/11 01:27:26;;;;;;;6.90;5.53;;;;;;;;;;6220515;23;20145;-81
2022/03/11 01:29:52;;;;;;;6.50;5.60;;;;;;;;;;6216497;23;20152;-81
2022/03/11 01:32:18;;;;;;;7.07;5.60;;;;;;;;;;6219874;23;20177;-83
2022/03/11 01:34:44;;;;;;;6.67;5.57;;;;;;;;;;6218308;23;20178;-83
2022/03/11 01:37:10;;;;;;;6.93;5.63;;;;;;;;;;6218987;23;20164;-83
2022/03/11 01:39:36;;;;;;;5.97;5.23;;;;;;;;;;6216720;23;20527;-83
2022/03/11 01:42:02;;;;;;;6.30;5.70;;;;;;;;;;6216934;23;20181;-81
2022/03/11 01:44:28;;;;;;;6.20;5.57;;;;;;;;;;6219298;23;20177;-82
2022/03/11 01:46:55;;;;;;;6.03;5.30;;;;;;;;;;6218424;23;20157;-82
2022/03/11 01:49:21;;;;;;;6.50;5.53;;;;;;;;;;6219339;23;20142;-82
2022/03/11 01:51:48;;;;;;;7.60;5.23;;;;;;;;;;6220825;23;20155;-81
2022/03/11 01:54:14;;;;;;;6.27;5.60;;;;;;;;;;6218336;23;20185;-81
2022/03/11 01:56:40;;;;;;;6.17;4.70;;;;;;;;;;6220824;23;20146;-82
2022/03/11 01:59:07;;;;;;;6.10;5.23;;;;;;;;;;6220473;23;20153;-83
2022/03/11 02:01:33;;;;;;;7.53;5.27;;;;;;;;;;6220335;23;20177;-80
2022/03/11 02:04:00;;;;;;;5.63;5.13;;;;;;;;;;6220643;23;20204;-82
2022/03/11 02:06:26;;;;;;;5.83;4.90;;;;;;;;;;6219173;23;20181;-82
2022/03/11 02:08:53;;;;;;;6.43;5.03;;;;;;;;;;6220965;23;20145;-81
2022/03/11 02:11:19;;;;;;;7.77;5.60;;;;;;;;;;6218721;23;20232;-81
2022/03/11 02:14:05;;;;;;;5.43;4.93;;;;;;;;;;6219194;23;20663;-81
2022/03/11 02:16:32;;;;;;;7.07;5.70;;;;;;;;;;6218858;23;20173;-82
2022/03/11 02:18:59;;;;;;;6.47;5.77;;;;;;;;;;6218653;23;20158;-81
2022/03/11 02:21:29;;;;;;;5.87;5.37;;;;;;;;;;6220689;23;20198;-82
2022/03/11 02:23:58;;;;;;;5.87;5.20;;;;;;;;;;6219578;23;20153;-82
2022/03/11 02:26:25;;;;;;;6.93;5.00;;;;;;;;;;6219749;23;20562;-81
2022/03/11 02:28:52;;;;;;;6.27;5.67;;;;;;;;;;6219273;23;20527;-82
2022/03/11 02:31:19;;;;;;;6.70;5.90;;;;;;;;;;6219621;23;20159;-81
2022/03/11 02:33:46;;;;;;;5.93;5.33;;;;;;;;;;6217721;23;20472;-82
2022/03/11 02:36:12;;;;;;;7.47;5.83;;;;;;;;;;6217766;23;20631;-81
2022/03/11 02:38:38;;;;;;;6.63;5.93;;;;;;;;;;6217846;23;20156;-80
2022/03/11 02:41:04;;;;;;;10.90;7.93;;;;;;;;;;6220118;23;20181;-82
2022/03/11 02:43:30;;;;;;;8.13;6.47;;;;;;;;;;6219716;23;20162;-81
2022/03/11 02:45:56;;;;;;;7.43;5.57;;;;;;;;;;6219542;23;20168;-82
2022/03/11 02:48:26;;;;;;;9.13;6.93;;;;;;;;;;6219744;23;20464;-81
2022/03/11 02:50:52;;;;;;;7.53;6.20;;;;;;;;;;6219220;23;20595;-82
2022/03/11 02:53:18;;;;;;;8.07;6.20;;;;;;;;;;6220008;23;20145;-81
2022/03/11 02:55:44;;;;;;;7.97;5.97;;;;;;;;;;6218037;23;20192;-81
2022/03/11 02:58:10;;;;;;;8.07;5.87;;;;;;;;;;6217300;23;20164;-81
2022/03/11 03:00:36;;;;;;;5.90;5.30;;;;;;;;;;6220144;23;20148;-81
2022/03/11 03:03:02;;;;;;;6.50;5.80;;;;;;;;;;6221195;23;20184;-83
2022/03/11 03:05:28;;;;;;;7.60;5.57;;;;;;;;;;6219205;23;20622;-83
2022/03/11 03:07:54;;;;;;;5.90;5.03;;;;;;;;;;6219237;23;20157;-81
2022/03/11 03:10:21;;;;;;;6.53;5.77;;;;;;;;;;6192655;23;20173;-81
2022/03/11 03:12:47;;;;;;;7.57;6.43;;;;;;;;;;6220344;23;20160;-81
2022/03/11 03:15:13;;;;;;;7.17;5.40;;;;;;;;;;6219377;23;20176;-81
2022/03/11 03:17:39;;;;;;;6.00;5.40;;;;;;;;;;6221637;23;20169;-82
2022/03/11 03:20:05;;;;;;;7.10;5.17;;;;;;;;;;6220925;23;20151;-82
2022/03/11 03:22:32;;;;;;;5.93;5.33;;;;;;;;;;6223963;23;20240;-81
2022/03/11 03:24:58;;;;;;;6.47;5.50;;;;;;;;;;6221801;23;20250;-82
2022/03/11 03:27:24;;;;;;;7.00;5.53;;;;;;;;;;6220305;23;20392;-81
2022/03/11 03:29:50;;;;;;;8.40;6.40;;;;;;;;;;6220942;23;20152;-81
2022/03/11 03:32:16;;;;;;;7.17;6.03;;;;;;;;;;6225246;23;20153;-81
2022/03/11 03:34:42;;;;;;;7.97;5.47;;;;;;;;;;6224179;23;20167;-81
2022/03/11 03:37:09;;;;;;;9.47;5.93;;;;;;;;;;6224415;23;20151;-81
2022/03/11 03:39:39;;;;;;;8.87;6.20;;;;;;;;;;6223883;23;20157;-81
2022/03/11 03:42:06;;;;;;;6.93;6.03;;;;;;;;;;6223194;23;20170;-81
2022/03/11 03:44:32;;;;;;;6.93;6.20;;;;;;;;;;6224009;23;20146;-82
2022/03/11 03:46:59;;;;;;;6.90;5.80;;;;;;;;;;6223560;23;20146;-81
2022/03/11 03:49:25;;;;;;;8.03;6.40;;;;;;;;;;6224077;23;20176;-81
2022/03/11 03:51:51;;;;;;;7.23;6.40;;;;;;;;;;6223233;23;20168;-81
2022/03/11 03:54:17;;;;;;;14.10;6.77;;;;;;;;;;6222180;23;20163;-81
2022/03/11 03:56:44;;;;;;;7.93;6.37;;;;;;;;;;6224332;23;20156;-81
2022/03/11 03:59:11;;;;;;;10.37;6.10;;;;;;;;;;6223481;23;20172;-81
2022/03/11 04:01:38;;;;;;;7.07;6.20;;;;;;;;;;6223394;23;20167;-81
2022/03/11 04:04:05;;;;;;;9.80;6.73;;;;;;;;;;6223416;23;20149;-81
2022/03/11 04:06:31;;;;;;;9.27;6.73;;;;;;;;;;6221324;23;20262;-81
2022/03/11 04:08:57;;;;;;;9.97;6.40;;;;;;;;;;6222786;23;20149;-81
2022/03/11 04:11:24;;;;;;;8.80;7.43;;;;;;;;;;6222875;23;20167;-81
2022/03/11 04:13:50;;;;;;;8.43;7.57;;;;;;;;;;6223280;23;20207;-81
2022/03/11 04:16:16;;;;;;;11.07;8.10;;;;;;;;;;6197448;23;20198;-82
2022/03/11 04:18:43;;;;;;;8.53;7.37;;;;;;;;;;6222056;23;20168;-81
2022/03/11 04:21:09;;;;;;;8.63;7.57;;;;;;;;;;6223678;23;20216;-81
2022/03/11 04:23:35;;;;;;;9.97;7.67;;;;;;;;;;6223090;23;20161;-82
2022/03/11 04:26:01;;;;;;;8.80;7.53;;;;;;;;;;6224574;23;20245;-82
2022/03/11 04:28:27;;;;;;;12.57;8.77;;;;;;;;;;6223039;23;20695;-81
2022/03/11 04:30:53;;;;;;;11.70;9.17;;;;;;;;;;6221739;23;20154;-81
2022/03/11 04:33:20;;;;;;;12.90;8.83;;;;;;;;;;6223409;23;20145;-81
2022/03/11 04:35:46;;;;;;;14.23;8.67;;;;;;;;;;6223122;23;20221;-81
2022/03/11 04:38:12;;;;;;;12.20;8.80;;;;;;;;;;6222994;23;20156;-81
2022/03/11 04:40:38;;;;;;;10.47;8.60;;;;;;;;;;6223155;23;20148;-81
2022/03/11 04:43:04;;;;;;;11.93;9.30;;;;;;;;;;6222350;23;20578;-82
2022/03/11 04:45:31;;;;;;;13.13;8.83;;;;;;;;;;6223694;23;20169;-81
2022/03/11 04:47:57;;;;;;;12.00;9.23;;;;;;;;;;6222266;23;20662;-81
2022/03/11 04:50:23;;;;;;;11.63;9.10;;;;;;;;;;6221679;23;20154;-81
2022/03/11 04:52:49;;;;;;;13.23;10.13;;;;;;;;;;6222948;23;20163;-81
2022/03/11 04:55:18;;;;;;;14.20;9.43;;;;;;;;;;6222737;23;20206;-81
2022/03/11 04:57:44;;;;;;;13.77;10.10;;;;;;;;;;6223254;23;20183;-81
2022/03/11 05:00:11;;;;;;;12.60;10.23;;;;;;;;;;6193802;23;20163;-82
2022/03/11 05:02:37;;;;;;;15.20;9.87;;;;;;;;;;6193067;23;20204;-81
2022/03/11 05:05:06;;;;;;;14.23;10.60;;;;;;;;;;6219684;23;20191;-81
2022/03/11 05:07:32;;;;;;;14.63;10.87;;;;;;;;;;6219165;23;20155;-83
2022/03/11 05:09:58;;;;;;;14.80;11.53;;;;;;;;;;6192213;23;20158;-82
2022/03/11 05:12:24;;;;;;;18.47;11.50;;;;;;;;;;6219293;23;20275;-81
2022/03/11 05:14:50;;;;;;;14.10;11.13;;;;;;;;;;6192486;23;20805;-83
2022/03/11 05:17:17;;;;;;;17.37;12.27;;;;;;;;;;6219140;23;20626;-82
2022/03/11 05:19:43;;;;;;;17.83;11.73;;;;;;;;;;6219998;23;20150;-82
2022/03/11 05:22:09;;;;;;;15.93;12.50;;;;;;;;;;6216260;23;20187;-82
2022/03/11 05:24:35;;;;;;;16.80;12.70;;;;;;;;;;6193000;23;20176;-81
2022/03/11 05:27:02;;;;;;;18.97;12.80;;;;;;;;;;6218613;23;20149;-82
2022/03/11 05:29:29;;;;;;;18.13;12.23;;;;;;;;;;6217714;23;20166;-82
2022/03/11 05:31:55;;;;;;;17.37;12.63;;;;;;;;;;6217122;23;20164;-82
2022/03/11 05:34:21;;;;;;;18.10;13.30;;;;;;;;;;6216901;23;20160;-82
2022/03/11 05:36:47;;;;;;;20.00;13.90;;;;;;;;;;6190915;23;20445;-83
2022/03/11 05:39:13;;;;;;;21.17;14.10;;;;;;;;;;6218276;23;20187;-82
2022/03/11 05:41:42;;;;;;;22.80;14.13;;;;;;;;;;6218213;23;20204;-81
2022/03/11 05:44:08;;;;;;;20.30;14.23;;;;;;;;;;6192233;23;20154;-81
2022/03/11 05:46:34;;;;;;;24.47;14.90;;;;;;;;;;6220590;23;20241;-81
2022/03/11 05:49:00;;;;;;;22.00;14.00;;;;;;;;;;6220487;23;20161;-80
2022/03/11 05:51:26;;;;;;;23.30;15.37;;;;;;;;;;6219843;23;20150;-82
2022/03/11 05:53:52;;;;;;;22.00;15.50;;;;;;;;;;6220008;23;20156;-80
2022/03/11 05:56:18;;;;;;;25.77;15.67;;;;;;;;;;6219344;23;20190;-82
2022/03/11 05:58:44;;;;;;;25.43;15.53;;;;;;;;;;6187452;23;20169;-82
2022/03/11 06:01:10;;;;;;;25.73;17.00;;;;;;;;;;6218672;23;20178;-80
2022/03/11 06:03:36;;;;;;;24.67;16.23;;;;;;;;;;6218344;23;20232;-81
2022/03/11 06:06:03;;;;;;;23.27;16.27;;;;;;;;;;6190782;23;20172;-82
2022/03/11 06:08:29;;;;;;;26.60;17.23;;;;;;;;;;6220029;23;20151;-83
2022/03/11 06:10:55;;;;;;;24.83;16.77;;;;;;;;;;6219959;23;20157;-84
2022/03/11 06:13:21;;;;;;;25.60;16.80;;;;;;;;;;6219906;23;20180;-83
2022/03/11 06:15:47;;;;;;;29.47;17.07;;;;;;;;;;6219609;23;20169;-83
2022/03/11 06:18:15;;;;;;;22.73;16.70;;;;;;;;;;6220056;23;20215;-84
2022/03/11 06:20:41;;;;;;;25.17;17.50;;;;;;;;;;6220463;23;20150;-83
2022/03/11 06:23:08;;;;;;;31.60;17.40;;;;;;;;;;6219976;23;20175;-83
2022/03/11 06:25:34;;;;;;;28.67;17.93;;;;;;;;;;6194028;23;20610;-83
2022/03/11 06:27:59;;;;;;;25.50;16.93;;;;;;;;;;6196916;23;20533;-83
2022/03/11 06:30:25;;;;;;;26.87;17.63;;;;;;;;;;6224629;23;20173;-83
2022/03/11 06:32:52;;;;;;;26.67;17.70;;;;;;;;;;6224926;23;20153;-83
2022/03/11 06:35:18;;;;;;;28.17;17.30;;;;;;;;;;6222904;23;20203;-81
2022/03/11 06:37:46;;;;;;;27.20;17.33;;;;;;;;;;6223034;23;20159;-83
2022/03/11 06:40:12;;;;;;;26.40;18.47;;;;;;;;;;6222592;23;20154;-83
2022/03/11 06:42:39;;;;;;;29.63;18.73;;;;;;;;;;6221688;23;20174;-83
2022/03/11 06:45:06;;;;;;;27.63;18.57;;;;;;;;;;6220388;23;20175;-82
2022/03/11 06:47:32;;;;;;;27.73;17.60;;;;;;;;;;6220330;23;20621;-83
2022/03/11 06:49:58;;;;;;;27.33;18.00;;;;;;;;;;6220377;23;20158;-84
2022/03/11 06:52:24;;;;;;;28.43;17.57;;;;;;;;;;6193607;23;20172;-83
2022/03/11 06:54:50;;;;;;;29.23;18.90;;;;;;;;;;6220918;23;20527;-83
2022/03/11 06:57:44;;;;;;;30.90;19.77;;;;;;;;;;6217503;23;20200;-79
2022/03/11 07:00:11;;;;;;;33.03;18.30;;;;;;;;;;6204579;23;20207;-78
2022/03/11 07:02:39;;;;;;;29.17;18.57;;;;;;;;;;6219017;23;20254;-80
2022/03/11 07:05:05;;;;;;;31.17;18.23;;;;;;;;;;6219163;23;20487;-80
2022/03/11 07:07:33;;;;;;;30.67;18.50;;;;;;;;;;6218981;23;20633;-79
2022/03/11 07:09:59;;;;;;;27.67;18.70;;;;;;;;;;6218681;23;20151;-79
2022/03/11 07:12:25;;;;;;;28.53;18.50;;;;;;;;;;6218312;23;20587;-80
2022/03/11 07:14:51;;;;;;;30.87;18.73;;;;;;;;;;6218970;23;20153;-80
2022/03/11 07:17:17;;;;;;;30.73;19.10;;;;;;;;;;6217534;23;20169;-80
2022/03/11 07:19:43;;;;;;;29.33;18.67;;;;;;;;;;6193053;23;20221;-80
2022/03/11 07:22:09;;;;;;;28.17;19.23;;;;;;;;;;6219291;23;20173;-80
2022/03/11 07:24:35;;;;;;;28.43;19.17;;;;;;;;;;6191658;23;20156;-80
2022/03/11 07:27:01;;;;;;;29.57;18.83;;;;;;;;;;6219257;23;20172;-78
2022/03/11 07:29:27;;;;;;;30.70;19.20;;;;;;;;;;6219915;23;20158;-79
2022/03/11 07:31:53;;;;;;;27.93;18.90;;;;;;;;;;6219185;23;20153;-79
2022/03/11 07:34:21;;;;;;;31.93;19.93;;;;;;;;;;6191773;23;20157;-79
2022/03/11 07:36:47;;;;;;;30.93;19.07;;;;;;;;;;6192406;23;20172;-79
2022/03/11 07:39:13;;;;;;;24.93;17.73;;;;;;;;;;6219132;23;20157;-79
2022/03/11 07:41:39;;;;;;;29.10;18.90;;;;;;;;;;6219203;23;20683;-80
2022/03/11 07:44:05;;;;;;;28.87;18.40;;;;;;;;;;6219297;23;20660;-80
2022/03/11 07:46:31;;;;;;;29.90;19.07;;;;;;;;;;6219174;23;20169;-79
2022/03/11 07:48:58;;;;;;;32.20;18.80;;;;;;;;;;6218839;23;20142;-81
2022/03/11 07:51:25;;;;;;;30.67;19.37;;;;;;;;;;6217744;23;20184;-78
2022/03/11 07:53:51;;;;;;;31.63;18.63;;;;;;;;;;6217433;23;20160;-79
2022/03/11 07:56:17;;;;;;;30.70;18.10;;;;;;;;;;6217298;23;20181;-79
2022/03/11 07:58:43;;;;;;;30.60;19.10;;;;;;;;;;6217312;23;20599;-79
2022/03/11 08:01:10;;;;;;;27.97;18.83;;;;;;;;;;6217749;23;20175;-79
2022/03/11 08:03:39;;;;;;;29.93;19.67;;;;;;;;;;6217633;23;20163;-79
2022/03/11 08:06:06;;;;;;;39.03;22.57;;;;;;;;;;6218536;23;20218;-79
2022/03/11 08:08:32;;;;;;;31.13;19.17;;;;;;;;;;6218319;23;20151;-79
2022/03/11 08:10:59;;;;;;;25.93;17.13;;;;;;;;;;6218513;23;20149;-79
2022/03/11 08:13:26;;;;;;;25.37;18.00;;;;;;;;;;6218725;23;20149;-79
2022/03/11 08:15:52;;;;;;;26.73;17.53;;;;;;;;;;6194490;23;20149;-79
2022/03/11 08:18:18;;;;;;;22.53;16.87;;;;;;;;;;6191685;23;20167;-79
2022/03/11 08:20:44;;;;;;;33.57;17.93;;;;;;;;;;6219585;23;20146;-78
2022/03/11 08:23:10;;;;;;;24.90;16.83;;;;;;;;;;6219232;23;20219;-78
2022/03/11 08:25:36;;;;;;;30.90;18.40;;;;;;;;;;6219139;23;20558;-78
2022/03/11 08:28:05;;;;;;;27.13;18.47;;;;;;;;;;6218455;23;20179;-78
2022/03/11 08:30:32;;;;;;;28.67;18.47;;;;;;;;;;6217460;23;20169;-78
2022/03/11 08:32:58;;;;;;;27.10;17.47;;;;;;;;;;6218420;23;20211;-78
2022/03/11 08:35:25;;;;;;;28.40;18.03;;;;;;;;;;6219636;23;20150;-78
2022/03/11 08:37:51;;;;;;;27.13;17.70;;;;;;;;;;6217647;23;20172;-78
2022/03/11 08:40:23;;;;;;;26.17;18.17;;;;;;;;;;6217353;23;20492;-79
2022/03/11 08:42:50;;;;;;;25.20;18.13;;;;;;;;;;6217302;23;20196;-80
2022/03/11 08:45:16;;;;;;;27.17;17.30;;;;;;;;;;6217794;23;20142;-78
2022/03/11 08:47:42;;;;;;;21.63;15.23;;;;;;;;;;6217656;23;20165;-78
2022/03/11 08:50:09;;;;;;;21.30;15.07;;;;;;;;;;6191130;23;20525;-78
2022/03/11 08:52:36;;;;;;;27.50;18.03;;;;;;;;;;6216849;23;20150;-79
2022/03/11 08:55:03;;;;;;;22.23;16.97;;;;;;;;;;6216533;23;20211;-79
2022/03/11 08:57:29;;;;;;;22.90;16.17;;;;;;;;;;6216025;23;20184;-78
2022/03/11 08:59:55;;;;;;;25.03;16.13;;;;;;;;;;6217222;23;20146;-78
2022/03/11 09:02:24;;;;;;;25.63;16.43;;;;;;;;;;6217308;23;20605;-78
2022/03/11 09:04:50;;;;;;;25.30;17.83;;;;;;;;;;6218375;23;20146;-79
2022/03/11 09:07:16;;;;;;;31.47;18.77;;;;;;;;;;6220769;23;20243;-78
2022/03/11 09:09:42;;;;;;;29.77;18.33;;;;;;;;;;6216616;23;20481;-79
2022/03/11 09:12:08;;;;;;;23.80;15.23;;;;;;;;;;6216363;23;20158;-78
2022/03/11 09:14:34;;;;;;;22.53;14.73;;;;;;;;;;6189548;23;20168;-79
2022/03/11 09:17:01;;;;;;;22.03;15.60;;;;;;;;;;6216783;23;20170;-78
2022/03/11 09:19:28;;;;;;;22.70;14.80;;;;;;;;;;6190356;23;20657;-79
2022/03/11 09:21:54;;;;;;;20.17;14.97;;;;;;;;;;6217656;23;20180;-78
2022/03/11 09:24:20;;;;;;;27.93;15.27;;;;;;;;;;6217985;23;20145;-79
2022/03/11 09:26:47;;;;;;;20.43;13.80;;;;;;;;;;6218438;23;20170;-78
2022/03/11 09:29:13;;;;;;;25.63;15.63;;;;;;;;;;6218220;23;20150;-80
2022/03/11 09:31:39;;;;;;;21.03;15.20;;;;;;;;;;6191707;23;20197;-79
2022/03/11 09:34:05;;;;;;;22.37;15.80;;;;;;;;;;6219248;23;20146;-81
2022/03/11 09:36:31;;;;;;;23.17;15.20;;;;;;;;;;6192136;23;20212;-80
2022/03/11 09:38:57;;;;;;;24.73;15.40;;;;;;;;;;6218713;23;20146;-83
2022/03/11 09:41:27;;;;;;;22.40;15.60;;;;;;;;;;6218547;23;20256;-80
2022/03/11 09:43:55;;;;;;;20.80;15.23;;;;;;;;;;6218978;23;20650;-81
2022/03/11 09:46:21;;;;;;;23.77;15.87;;;;;;;;;;6217663;23;20240;-79
2022/03/11 09:48:47;;;;;;;21.93;15.17;;;;;;;;;;6190772;23;20147;-81
2022/03/11 09:51:17;;;;;;;21.90;14.63;;;;;;;;;;6219543;23;20161;-80
2022/03/11 09:53:53;;;;;;;19.80;14.70;;;;;;;;;;6193838;23;20622;-81
2022/03/11 09:56:20;;;;;;;24.20;15.93;;;;;;;;;;6186593;23;20190;-76
2022/03/11 09:58:46;;;;;;;20.17;14.97;;;;;;;;;;6189315;23;20155;-82
2022/03/11 10:01:12;;;;;;;25.07;15.63;;;;;;;;;;6185938;23;20200;-80
2022/03/11 10:03:59;;;;;;;24.83;16.40;;;;;;;;;;6188123;23;20150;-80
2022/03/11 10:09:30;;;;;;;18.93;15.53;;;;;;;;;;6195975;23;20166;-82
2022/03/11 10:11:57;;;;;;;23.80;16.57;;;;;;;;;;6193942;23;20157;-82
2022/03/11 10:14:29;;;;;;;22.13;15.77;;;;;;;;;;6190653;23;20231;-82
2022/03/11 10:16:55;;;;;;;24.70;16.67;;;;;;;;;;6190305;23;20182;-82
2022/03/11 10:19:22;;;;;;;23.57;15.60;;;;;;;;;;6163966;23;20161;-81
2022/03/11 10:21:52;;;;;;;25.37;15.77;;;;;;;;;;6188723;23;20178;-80
2022/03/11 10:24:19;;;;;;;20.17;15.60;;;;;;;;;;6190927;23;20145;-81
2022/03/11 10:26:49;;;;;;;22.37;15.10;;;;;;;;;;6163700;23;20198;-81
2022/03/11 10:29:18;;;;;;;23.83;14.97;;;;;;;;;;6187540;23;20152;-80
2022/03/11 10:31:45;;;;;;;21.53;14.80;;;;;;;;;;6160385;23;20155;-79
2022/03/11 10:34:15;;;;;;;21.07;15.27;;;;;;;;;;6160040;23;20163;-80
2022/03/11 10:36:54;;;;;;;20.80;15.97;;;;;;;;;;6160583;23;20174;-79
2022/03/11 10:39:25;;;;;;;20.97;15.60;;;;;;;;;;6186693;23;20146;-79
2022/03/11 10:41:56;;;;;;;21.87;15.53;;;;;;;;;;6186606;23;20185;-79
2022/03/11 10:44:25;;;;;;;20.17;14.70;;;;;;;;;;6186846;23;20144;-79
2022/03/11 10:47:15;;;;;;;21.10;14.93;;;;;;;;;;6186734;23;20167;-79
2022/03/11 10:49:48;;;;;;;23.83;15.80;;;;;;;;;;6171226;23;20156;-80
2022/03/11 10:52:14;;;;;;;18.20;14.87;;;;;;;;;;6186967;23;20189;-81
2022/03/11 10:54:43;;;;;;;21.40;16.37;;;;;;;;;;6186888;23;20157;-80
2022/03/11 10:57:10;;;;;;;20.57;15.90;;;;;;;;;;6186921;23;20618;-80
2022/03/11 10:59:36;;;;;;;24.70;16.63;;;;;;;;;;6159616;23;20157;-81
2022/03/11 11:02:03;;;;;;;25.50;16.50;;;;;;;;;;6186107;23;20204;-80
2022/03/11 11:04:29;;;;;;;20.93;16.23;;;;;;;;;;6186374;23;20232;-79
2022/03/11 11:06:56;;;;;;;21.17;15.57;;;;;;;;;;6143081;23;20236;-81
2022/03/11 11:09:23;;;;;;;22.43;15.03;;;;;;;;;;6186484;23;20149;-81
2022/03/11 11:11:50;;;;;;;19.83;15.17;;;;;;;;;;6184604;23;20491;-81
2022/03/11 11:14:16;;;;;;;24.17;15.23;;;;;;;;;;6185473;23;20158;-80
2022/03/11 11:16:48;;;;;;;22.40;15.27;;;;;;;;;;6183706;22;20201;-81
2022/03/11 11:19:34;;;;;;;19.73;14.47;;;;;;;;;;6214322;23;20214;-79
2022/03/11 11:22:00;;;;;;;21.50;16.37;;;;;;;;;;6217425;23;20174;-81
2022/03/11 11:24:36;;;;;;;22.63;15.37;;;;;;;;;;6217240;23;20200;-78
2022/03/11 11:27:15;;;;;;;20.67;15.47;;;;;;;;;;6215990;23;20495;-79
2022/03/11 11:30:17;;;;;;;23.90;15.73;;;;;;;;;;6216372;23;20154;-80
2022/03/11 11:32:46;;;;;;;22.20;14.93;;;;;;;;;;6072442;23;20187;-80
2022/03/11 11:42:38;;;;;;;20.83;14.40;;;;;;;;;;5954379;24;20230;-78
2022/03/11 11:45:16;;;;;;;19.63;14.70;;;;;;;;;;5954195;24;20156;-80
2022/03/11 11:48:06;;;;;;;21.70;15.13;;;;;;;;;;6011090;23;20171;-80
2022/03/11 11:57:00;;;;;;;18.87;14.87;;;;;;;;;;6016819;23;21524;-80
2022/03/11 11:59:37;;;;;;;18.63;15.00;;;;;;;;;;6220031;23;20150;-78
2022/03/11 12:02:27;;;;;;;18.43;14.90;;;;;;;;;;6142344;23;20668;-79
2022/03/11 12:04:53;;;;;;;19.80;15.07;;;;;;;;;;6196674;23;20146;-85
2022/03/11 12:07:21;;;;;;;19.83;15.30;;;;;;;;;;6224096;23;20184;-85
2022/03/11 12:09:53;;;;;;;19.23;15.43;;;;;;;;;;6197699;23;20151;-84
2022/03/11 12:12:24;;;;;;;25.70;16.57;;;;;;;;;;6224376;23;20151;-85
2022/03/11 12:15:08;;;;;;;22.70;15.77;;;;;;;;;;6196851;23;20146;-84
2022/03/11 12:17:40;;;;;;;20.93;15.87;;;;;;;;;;6198348;23;20204;-85
2022/03/11 12:20:25;;;;;;;20.37;15.40;;;;;;;;;;6199376;23;20617;-84
2022/03/11 12:22:58;;;;;;;23.97;16.47;;;;;;;;;;6225024;23;20220;-85
2022/03/11 12:25:25;;;;;;;21.03;14.43;;;;;;;;;;6225472;23;20479;-85
2022/03/11 12:28:06;;;;;;;30.53;14.30;;;;;;;;;;6198674;23;20176;-85
2022/03/11 12:30:37;;;;;;;19.57;15.67;;;;;;;;;;6224833;23;20141;-85
2022/03/11 12:33:08;;;;;;;21.23;16.10;;;;;;;;;;6224638;23;20711;-84
2022/03/11 12:35:34;;;;;;;23.20;15.90;;;;;;;;;;6224471;23;20170;-84
2022/03/11 12:38:01;;;;;;;21.73;15.43;;;;;;;;;;6223726;23;20224;-85
2022/03/11 12:40:27;;;;;;;19.93;15.10;;;;;;;;;;6197804;23;20158;-85
2022/03/11 12:43:05;;;;;;;18.93;15.27;;;;;;;;;;6225048;23;20311;-85
2022/03/11 12:45:31;;;;;;;20.27;15.90;;;;;;;;;;6197685;23;20157;-85
2022/03/11 12:47:57;;;;;;;20.03;15.10;;;;;;;;;;6224343;23;20168;-85
2022/03/11 12:50:23;;;;;;;24.00;16.10;;;;;;;;;;6222886;23;20275;-85
2022/03/11 12:52:50;;;;;;;19.60;15.70;;;;;;;;;;6196126;23;20165;-85
2022/03/11 12:55:20;;;;;;;21.30;16.20;;;;;;;;;;6196600;23;20157;-85
2022/03/11 12:57:50;;;;;;;19.63;15.60;;;;;;;;;;6220346;23;20280;-87
2022/03/11 13:00:23;;;;;;;18.50;15.50;;;;;;;;;;6220291;23;20151;-87
2022/03/11 13:02:50;;;;;;;19.33;14.97;;;;;;;;;;6192108;23;20205;-86
2022/03/11 13:05:19;;;;;;;20.80;15.83;;;;;;;;;;6218365;23;20142;-87
2022/03/11 13:07:46;;;;;;;23.87;16.60;;;;;;;;;;6219675;23;20523;-86
2022/03/11 13:10:13;;;;;;;18.80;15.00;;;;;;;;;;6219923;23;20461;-86
2022/03/11 13:12:39;;;;;;;20.80;15.40;;;;;;;;;;6219893;23;20182;-85
2022/03/11 13:15:09;;;;;;;23.37;15.53;;;;;;;;;;6219035;23;20149;-86
2022/03/11 13:17:46;;;;;;;20.13;15.50;;;;;;;;;;6218970;23;20248;-86
2022/03/11 13:20:32;;;;;;;21.07;16.57;;;;;;;;;;6218883;23;20224;-87
2022/03/11 13:22:59;;;;;;;27.17;18.13;;;;;;;;;;6218876;23;20152;-85
2022/03/11 13:25:29;;;;;;;19.30;15.13;;;;;;;;;;6218526;23;20169;-87
2022/03/11 13:27:57;;;;;;;22.40;15.63;;;;;;;;;;6218629;23;20174;-86
2022/03/11 13:30:31;;;;;;;24.37;16.03;;;;;;;;;;6191581;23;20157;-86
2022/03/11 13:32:58;;;;;;;23.47;15.33;;;;;;;;;;6218451;23;20642;-87
2022/03/11 13:35:27;;;;;;;20.17;15.53;;;;;;;;;;6218973;23;20166;-88
2022/03/11 13:37:53;;;;;;;19.73;15.30;;;;;;;;;;6218271;23;20164;-86
2022/03/11 13:40:19;;;;;;;19.00;14.90;;;;;;;;;;6191621;23;20236;-84
2022/03/11 13:42:52;;;;;;;23.87;16.20;;;;;;;;;;6218317;23;20195;-87
2022/03/11 13:45:18;;;;;;;22.17;15.67;;;;;;;;;;6220074;23;20134;-85
2022/03/11 13:47:45;;;;;;;22.03;16.07;;;;;;;;;;6218503;23;20199;-87
2022/03/11 13:50:11;;;;;;;21.73;14.93;;;;;;;;;;6191847;23;20158;-87
2022/03/11 13:52:41;;;;;;;22.33;16.33;;;;;;;;;;6217951;23;20180;-86
2022/03/11 13:55:08;;;;;;;23.77;15.47;;;;;;;;;;6217473;23;20146;-87
2022/03/11 13:57:35;;;;;;;20.57;15.97;;;;;;;;;;6218803;23;20210;-88
2022/03/11 14:00:22;;;;;;;24.10;15.57;;;;;;;;;;6218104;23;20153;-87
2022/03/11 14:02:49;;;;;;;23.87;16.07;;;;;;;;;;6191622;23;20159;-84
2022/03/11 14:05:26;;;;;;;20.80;15.33;;;;;;;;;;6217972;23;20161;-87
2022/03/11 14:08:03;;;;;;;23.30;14.90;;;;;;;;;;6191768;23;20176;-86
2022/03/11 14:10:34;;;;;;;21.57;15.20;;;;;;;;;;6220220;23;20146;-87
2022/03/11 14:13:02;;;;;;;22.53;15.47;;;;;;;;;;6219235;23;20158;-87
2022/03/11 14:15:31;;;;;;;28.63;16.67;;;;;;;;;;6219406;23;20146;-85
2022/03/11 14:17:57;;;;;;;21.10;16.33;;;;;;;;;;6219862;23;20220;-85
2022/03/11 14:20:23;;;;;;;23.50;16.67;;;;;;;;;;6218802;23;20142;-86
2022/03/11 14:22:50;;;;;;;23.87;15.47;;;;;;;;;;6220780;23;20164;-87
2022/03/11 14:25:16;;;;;;;23.17;16.17;;;;;;;;;;6220046;23;20231;-85
2022/03/11 14:27:42;;;;;;;22.10;15.87;;;;;;;;;;6219112;23;20170;-85
2022/03/11 14:30:08;;;;;;;21.10;16.10;;;;;;;;;;6219190;23;20150;-86
2022/03/11 14:32:35;;;;;;;21.73;15.63;;;;;;;;;;6219201;23;20170;-86
2022/03/11 14:35:02;;;;;;;20.87;15.97;;;;;;;;;;6219042;23;20196;-85
2022/03/11 14:37:28;;;;;;;21.97;16.47;;;;;;;;;;6220839;23;20163;-86
2022/03/11 14:39:54;;;;;;;22.60;16.03;;;;;;;;;;6221244;23;20216;-86
2022/03/11 14:42:20;;;;;;;20.47;16.07;;;;;;;;;;6220148;23;20201;-86
2022/03/11 14:44:46;;;;;;;28.27;16.87;;;;;;;;;;6193771;23;20157;-86
2022/03/11 14:47:14;;;;;;;20.73;15.50;;;;;;;;;;6220870;23;20174;-86